sensor_id;sensor_type;location;lat;lon;timestamp;pressure;altitude;pressure_sealevel;temperature;humidity
59329;BME280;45100;46.926;7.452;2023-05-08T00:00:26;95626.05;;;13.37;100.00
59329;BME280;45100;46.926;7.452;2023-05-08T00:02:57;95623.37;;;13.33;100.00
59329;BME280;45100;46.926;7.452;2023-05-08T00:05:28;95625.72;;;13.30;100.00
59329;BME280;45100;46.926;7.452;2023-05-08T00:08:02;95625.67;;;13.26;100.00
59329;BME280;45100;46.926;7.452;2023-05-08T00:10:30;95621.81;;;13.23;100.00
59329;BME280;45100;46.926;7.452;2023-05-08T00:13:01;95620.90;;;13.24;100.00
59329;BME280;45100;46.926;7.452;2023-05-08T00:15:30;95620.97;;;13.24;100.00
59329;BME280;45100;46.926;7.452;2023-05-08T00:18:01;95620.81;;;13.25;100.00
59329;BME280;45100;46.926;7.452;2023-05-08T00:20:34;95620.86;;;13.24;100.00
59329;BME280;45100;46.926;7.452;2023-05-08T00:23:03;95624.11;;;13.22;100.00
59329;BME280;45100;46.926;7.452;2023-05-08T00:25:33;95621.18;;;13.20;100.00
59329;BME280;45100;46.926;7.452;2023-05-08T00:28:04;95620.30;;;13.18;100.00
59329;BME280;45100;46.926;7.452;2023-05-08T00:30:34;95623.34;;;13.16;100.00
59329;BME280;45100;46.926;7.452;2023-05-08T00:33:05;95619.47;;;13.13;100.00
59329;BME280;45100;46.926;7.452;2023-05-08T00:35:36;95625.12;;;13.10;100.00
59329;BME280;45100;46.926;7.452;2023-05-08T00:38:07;95624.55;;;13.10;100.00
59329;BME280;45100;46.926;7.452;2023-05-08T00:40:37;95623.86;;;13.11;100.00
59329;BME280;45100;46.926;7.452;2023-05-08T00:43:08;95624.00;;;13.12;100.00
59329;BME280;45100;46.926;7.452;2023-05-08T00:45:38;95622.39;;;13.13;100.00
59329;BME280;45100;46.926;7.452;2023-05-08T00:48:09;95620.09;;;13.14;100.00
59329;BME280;45100;46.926;7.452;2023-05-08T00:50:40;95621.41;;;13.15;100.00
59329;BME280;45100;46.926;7.452;2023-05-08T00:53:11;95622.44;;;13.15;100.00
59329;BME280;45100;46.926;7.452;2023-05-08T00:55:41;95619.42;;;13.13;100.00
59329;BME280;45100;46.926;7.452;2023-05-08T00:58:13;95619.70;;;13.11;100.00
59329;BME280;45100;46.926;7.452;2023-05-08T01:00:43;95624.28;;;13.08;100.00
59329;BME280;45100;46.926;7.452;2023-05-08T01:03:13;95627.66;;;13.05;100.00
59329;BME280;45100;46.926;7.452;2023-05-08T01:05:44;95629.69;;;13.01;100.00
59329;BME280;45100;46.926;7.452;2023-05-08T01:08:13;95627.69;;;13.01;100.00
59329;BME280;45100;46.926;7.452;2023-05-08T01:10:55;95630.50;;;13.01;100.00
59329;BME280;45100;46.926;7.452;2023-05-08T01:13:27;95632.71;;;13.00;100.00
59329;BME280;45100;46.926;7.452;2023-05-08T01:15:50;95634.77;;;13.01;100.00
59329;BME280;45100;46.926;7.452;2023-05-08T01:18:32;95631.20;;;13.01;100.00
59329;BME280;45100;46.926;7.452;2023-05-08T01:20:50;95635.16;;;13.02;100.00
59329;BME280;45100;46.926;7.452;2023-05-08T01:23:29;95635.27;;;13.01;100.00
59329;BME280;45100;46.926;7.452;2023-05-08T01:28:27;95638.20;;;12.97;100.00
59329;BME280;45100;46.926;7.452;2023-05-08T01:33:29;95639.48;;;12.92;100.00
59329;BME280;45100;46.926;7.452;2023-05-08T01:35:50;95638.67;;;12.92;100.00
59329;BME280;45100;46.926;7.452;2023-05-08T01:38:32;95641.59;;;12.92;100.00
59329;BME280;45100;46.926;7.452;2023-05-08T01:41:08;95648.27;;;12.93;100.00
59329;BME280;45100;46.926;7.452;2023-05-08T01:43:25;95645.55;;;12.95;100.00
59329;BME280;45100;46.926;7.452;2023-05-08T01:45:51;95641.88;;;12.95;100.00
59329;BME280;45100;46.926;7.452;2023-05-08T01:48:34;95642.72;;;12.96;100.00
59329;BME280;45100;46.926;7.452;2023-05-08T01:53:28;95648.77;;;12.91;100.00
59329;BME280;45100;46.926;7.452;2023-05-08T01:55:57;95646.86;;;12.88;100.00
59329;BME280;45100;46.926;7.452;2023-05-08T01:58:24;95645.00;;;12.86;100.00
59329;BME280;45100;46.926;7.452;2023-05-08T02:00:54;95645.58;;;12.84;100.00
59329;BME280;45100;46.926;7.452;2023-05-08T02:05:58;95648.92;;;12.87;100.00
59329;BME280;45100;46.926;7.452;2023-05-08T02:08:29;95647.12;;;12.88;100.00
59329;BME280;45100;46.926;7.452;2023-05-08T02:10:59;95646.41;;;12.88;100.00
59329;BME280;45100;46.926;7.452;2023-05-08T02:13:30;95645.24;;;12.88;100.00
59329;BME280;45100;46.926;7.452;2023-05-08T02:16:00;95647.58;;;12.89;100.00
59329;BME280;45100;46.926;7.452;2023-05-08T02:21:05;95641.47;;;12.89;100.00
59329;BME280;45100;46.926;7.452;2023-05-08T02:26:10;95642.38;;;12.89;100.00
59329;BME280;45100;46.926;7.452;2023-05-08T02:28:40;95642.72;;;12.87;100.00
59329;BME280;45100;46.926;7.452;2023-05-08T02:31:11;95639.27;;;12.85;100.00
59329;BME280;45100;46.926;7.452;2023-05-08T02:33:41;95639.27;;;12.83;100.00
59329;BME280;45100;46.926;7.452;2023-05-08T02:36:13;95636.05;;;12.80;100.00
59329;BME280;45100;46.926;7.452;2023-05-08T02:38:44;95639.78;;;12.80;100.00
59329;BME280;45100;46.926;7.452;2023-05-08T02:41:12;95639.91;;;12.81;100.00
59329;BME280;45100;46.926;7.452;2023-05-08T02:43:41;95641.11;;;12.81;100.00
59329;BME280;45100;46.926;7.452;2023-05-08T02:46:18;95639.48;;;12.81;100.00
59329;BME280;45100;46.926;7.452;2023-05-08T02:48:50;95639.80;;;12.80;100.00
59329;BME280;45100;46.926;7.452;2023-05-08T02:53:48;95638.52;;;12.72;100.00
59329;BME280;45100;46.926;7.452;2023-05-08T02:56:29;95643.07;;;12.68;100.00
59329;BME280;45100;46.926;7.452;2023-05-08T02:58:54;95641.78;;;12.64;100.00
59329;BME280;45100;46.926;7.452;2023-05-08T03:01:26;95647.07;;;12.60;100.00
59329;BME280;45100;46.926;7.452;2023-05-08T03:03:51;95643.46;;;12.58;100.00
59329;BME280;45100;46.926;7.452;2023-05-08T03:06:18;95652.58;;;12.57;100.00
59329;BME280;45100;46.926;7.452;2023-05-08T03:08:49;95651.06;;;12.56;100.00
59329;BME280;45100;46.926;7.452;2023-05-08T03:11:19;95647.16;;;12.54;100.00
59329;BME280;45100;46.926;7.452;2023-05-08T03:13:49;95642.89;;;12.53;100.00
59329;BME280;45100;46.926;7.452;2023-05-08T03:16:22;95646.20;;;12.53;100.00
59329;BME280;45100;46.926;7.452;2023-05-08T03:18:52;95645.69;;;12.52;100.00
59329;BME280;45100;46.926;7.452;2023-05-08T03:21:20;95644.59;;;12.49;100.00
59329;BME280;45100;46.926;7.452;2023-05-08T03:23:51;95640.95;;;12.46;100.00
59329;BME280;45100;46.926;7.452;2023-05-08T03:28:56;95644.44;;;12.41;100.00
59329;BME280;45100;46.926;7.452;2023-05-08T03:31:27;95640.91;;;12.40;100.00
59329;BME280;45100;46.926;7.452;2023-05-08T03:36:29;95634.64;;;12.38;100.00
59329;BME280;45100;46.926;7.452;2023-05-08T03:38:59;95633.62;;;12.39;100.00
59329;BME280;45100;46.926;7.452;2023-05-08T03:41:30;95635.28;;;12.40;100.00
59329;BME280;45100;46.926;7.452;2023-05-08T03:44:01;95638.70;;;12.40;100.00
59329;BME280;45100;46.926;7.452;2023-05-08T03:46:32;95641.62;;;12.43;100.00
59329;BME280;45100;46.926;7.452;2023-05-08T03:49:03;95635.91;;;12.44;100.00
59329;BME280;45100;46.926;7.452;2023-05-08T03:51:32;95635.73;;;12.43;100.00
59329;BME280;45100;46.926;7.452;2023-05-08T03:54:02;95641.99;;;12.38;100.00
59329;BME280;45100;46.926;7.452;2023-05-08T03:56:33;95642.19;;;12.35;100.00
59329;BME280;45100;46.926;7.452;2023-05-08T03:59:27;95643.56;;;12.34;100.00
59329;BME280;45100;46.926;7.452;2023-05-08T04:01:37;95643.58;;;12.33;100.00
59329;BME280;45100;46.926;7.452;2023-05-08T04:04:15;95640.41;;;12.31;100.00
59329;BME280;45100;46.926;7.452;2023-05-08T04:06:52;95643.92;;;12.33;100.00
59329;BME280;45100;46.926;7.452;2023-05-08T04:09:10;95640.50;;;12.35;100.00
59329;BME280;45100;46.926;7.452;2023-05-08T04:14:17;95646.72;;;12.39;100.00
59329;BME280;45100;46.926;7.452;2023-05-08T04:16:47;95641.06;;;12.42;100.00
59329;BME280;45100;46.926;7.452;2023-05-08T04:19:22;95640.76;;;12.43;100.00
59329;BME280;45100;46.926;7.452;2023-05-08T04:21:42;95647.86;;;12.42;100.00
59329;BME280;45100;46.926;7.452;2023-05-08T04:24:14;95646.34;;;12.42;100.00
59329;BME280;45100;46.926;7.452;2023-05-08T04:26:49;95650.13;;;12.38;100.00
59329;BME280;45100;46.926;7.452;2023-05-08T04:29:19;95651.34;;;12.34;100.00
59329;BME280;45100;46.926;7.452;2023-05-08T04:34:23;95652.64;;;12.30;100.00
59329;BME280;45100;46.926;7.452;2023-05-08T04:36:54;95656.27;;;12.29;100.00
59329;BME280;45100;46.926;7.452;2023-05-08T04:39:24;95653.28;;;12.28;100.00
59329;BME280;45100;46.926;7.452;2023-05-08T04:42:00;95651.95;;;12.27;100.00
59329;BME280;45100;46.926;7.452;2023-05-08T04:44:25;95656.39;;;12.27;100.00
59329;BME280;45100;46.926;7.452;2023-05-08T04:46:55;95654.27;;;12.24;100.00
59329;BME280;45100;46.926;7.452;2023-05-08T04:49:26;95655.74;;;12.23;100.00
59329;BME280;45100;46.926;7.452;2023-05-08T04:51:57;95655.50;;;12.22;100.00
59329;BME280;45100;46.926;7.452;2023-05-08T04:54:28;95652.48;;;12.22;100.00
59329;BME280;45100;46.926;7.452;2023-05-08T04:56:59;95652.73;;;12.23;100.00
59329;BME280;45100;46.926;7.452;2023-05-08T04:59:29;95656.05;;;12.24;100.00
59329;BME280;45100;46.926;7.452;2023-05-08T05:02:02;95655.38;;;12.25;100.00
59329;BME280;45100;46.926;7.452;2023-05-08T05:04:30;95658.44;;;12.25;100.00
59329;BME280;45100;46.926;7.452;2023-05-08T05:07:01;95662.26;;;12.26;100.00
59329;BME280;45100;46.926;7.452;2023-05-08T05:09:36;95657.65;;;12.28;100.00
59329;BME280;45100;46.926;7.452;2023-05-08T05:12:02;95660.67;;;12.30;100.00
59329;BME280;45100;46.926;7.452;2023-05-08T05:14:33;95665.05;;;12.34;100.00
59329;BME280;45100;46.926;7.452;2023-05-08T05:17:03;95663.69;;;12.37;100.00
59329;BME280;45100;46.926;7.452;2023-05-08T05:19:34;95666.91;;;12.40;100.00
59329;BME280;45100;46.926;7.452;2023-05-08T05:22:07;95663.98;;;12.41;100.00
59329;BME280;45100;46.926;7.452;2023-05-08T05:24:36;95668.24;;;12.42;100.00
59329;BME280;45100;46.926;7.452;2023-05-08T05:29:38;95665.36;;;12.46;100.00
59329;BME280;45100;46.926;7.452;2023-05-08T05:32:11;95666.42;;;12.47;100.00
59329;BME280;45100;46.926;7.452;2023-05-08T05:34:39;95667.54;;;12.48;100.00
59329;BME280;45100;46.926;7.452;2023-05-08T05:37:10;95668.69;;;12.51;100.00
59329;BME280;45100;46.926;7.452;2023-05-08T05:39:40;95674.35;;;12.55;100.00
59329;BME280;45100;46.926;7.452;2023-05-08T05:42:12;95678.25;;;12.57;100.00
59329;BME280;45100;46.926;7.452;2023-05-08T05:44:41;95668.83;;;12.59;100.00
59329;BME280;45100;46.926;7.452;2023-05-08T05:47:13;95669.06;;;12.61;100.00
59329;BME280;45100;46.926;7.452;2023-05-08T05:49:47;95668.08;;;12.63;100.00
59329;BME280;45100;46.926;7.452;2023-05-08T05:52:13;95669.53;;;12.67;100.00
59329;BME280;45100;46.926;7.452;2023-05-08T05:54:43;95673.92;;;12.72;100.00
59329;BME280;45100;46.926;7.452;2023-05-08T05:57:13;95672.66;;;12.78;100.00
59329;BME280;45100;46.926;7.452;2023-05-08T05:59:44;95668.62;;;12.85;100.00
59329;BME280;45100;46.926;7.452;2023-05-08T06:02:19;95670.23;;;12.92;100.00
59329;BME280;45100;46.926;7.452;2023-05-08T06:04:47;95671.79;;;12.98;100.00
59329;BME280;45100;46.926;7.452;2023-05-08T06:07:17;95672.84;;;13.06;100.00
59329;BME280;45100;46.926;7.452;2023-05-08T06:09:46;95668.84;;;13.10;100.00
59329;BME280;45100;46.926;7.452;2023-05-08T06:12:18;95676.48;;;13.14;100.00
59329;BME280;45100;46.926;7.452;2023-05-08T06:14:50;95677.59;;;13.19;100.00
59329;BME280;45100;46.926;7.452;2023-05-08T06:17:19;95674.97;;;13.23;100.00
59329;BME280;45100;46.926;7.452;2023-05-08T06:19:55;95678.23;;;13.27;100.00
59329;BME280;45100;46.926;7.452;2023-05-08T06:22:19;95678.09;;;13.30;100.00
59329;BME280;45100;46.926;7.452;2023-05-08T06:24:50;95680.43;;;13.33;100.00
59329;BME280;45100;46.926;7.452;2023-05-08T06:27:20;95680.84;;;13.34;100.00
59329;BME280;45100;46.926;7.452;2023-05-08T06:29:52;95681.48;;;13.34;100.00
59329;BME280;45100;46.926;7.452;2023-05-08T06:32:21;95682.95;;;13.34;100.00
59329;BME280;45100;46.926;7.452;2023-05-08T06:34:52;95679.86;;;13.35;100.00
59329;BME280;45100;46.926;7.452;2023-05-08T06:37:22;95687.06;;;13.35;100.00
59329;BME280;45100;46.926;7.452;2023-05-08T06:39:52;95685.39;;;13.34;100.00
59329;BME280;45100;46.926;7.452;2023-05-08T06:42:22;95681.62;;;13.33;100.00
59329;BME280;45100;46.926;7.452;2023-05-08T06:44:53;95683.73;;;13.33;100.00
59329;BME280;45100;46.926;7.452;2023-05-08T06:47:23;95683.80;;;13.34;100.00
59329;BME280;45100;46.926;7.452;2023-05-08T06:49:54;95683.16;;;13.36;100.00
59329;BME280;45100;46.926;7.452;2023-05-08T06:52:25;95680.19;;;13.39;100.00
59329;BME280;45100;46.926;7.452;2023-05-08T06:54:55;95680.41;;;13.42;100.00
59329;BME280;45100;46.926;7.452;2023-05-08T06:57:28;95682.64;;;13.48;100.00
59329;BME280;45100;46.926;7.452;2023-05-08T06:59:56;95684.84;;;13.54;100.00
59329;BME280;45100;46.926;7.452;2023-05-08T07:02:27;95679.14;;;13.60;100.00
59329;BME280;45100;46.926;7.452;2023-05-08T07:04:58;95680.92;;;13.67;100.00
59329;BME280;45100;46.926;7.452;2023-05-08T07:07:29;95686.47;;;13.79;100.00
59329;BME280;45100;46.926;7.452;2023-05-08T07:10:00;95689.28;;;13.90;100.00
59329;BME280;45100;46.926;7.452;2023-05-08T07:12:31;95693.27;;;13.99;100.00
59329;BME280;45100;46.926;7.452;2023-05-08T07:15:02;95692.38;;;14.06;100.00
59329;BME280;45100;46.926;7.452;2023-05-08T07:17:32;95694.55;;;14.09;99.96
59329;BME280;45100;46.926;7.452;2023-05-08T07:20:02;95696.09;;;14.10;99.55
59329;BME280;45100;46.926;7.452;2023-05-08T07:22:32;95695.66;;;14.13;99.41
59329;BME280;45100;46.926;7.452;2023-05-08T07:25:03;95693.44;;;14.15;99.56
59329;BME280;45100;46.926;7.452;2023-05-08T07:27:34;95697.55;;;14.21;99.39
59329;BME280;45100;46.926;7.452;2023-05-08T07:30:05;95695.86;;;14.29;99.01
59329;BME280;45100;46.926;7.452;2023-05-08T07:32:36;95693.84;;;14.39;98.41
59329;BME280;45100;46.926;7.452;2023-05-08T07:35:09;95694.00;;;14.51;97.67
59329;BME280;45100;46.926;7.452;2023-05-08T07:37:38;95693.31;;;14.62;96.47
59329;BME280;45100;46.926;7.452;2023-05-08T07:40:08;95701.44;;;14.74;96.11
59329;BME280;45100;46.926;7.452;2023-05-08T07:42:38;95698.80;;;14.84;95.41
59329;BME280;45100;46.926;7.452;2023-05-08T07:45:08;95696.43;;;14.92;94.56
59329;BME280;45100;46.926;7.452;2023-05-08T07:47:38;95689.45;;;14.99;94.73
59329;BME280;45100;46.926;7.452;2023-05-08T07:50:08;95688.38;;;15.10;94.28
59329;BME280;45100;46.926;7.452;2023-05-08T07:52:38;95694.91;;;15.22;94.34
59329;BME280;45100;46.926;7.452;2023-05-08T07:55:09;95694.44;;;15.36;93.29
59329;BME280;45100;46.926;7.452;2023-05-08T07:57:41;95693.83;;;15.47;91.98
59329;BME280;45100;46.926;7.452;2023-05-08T08:00:12;95693.09;;;15.53;89.85
59329;BME280;45100;46.926;7.452;2023-05-08T08:02:41;95691.19;;;15.56;90.53
59329;BME280;45100;46.926;7.452;2023-05-08T08:05:11;95690.41;;;15.61;90.59
59329;BME280;45100;46.926;7.452;2023-05-08T08:07:42;95692.45;;;15.65;89.94
59329;BME280;45100;46.926;7.452;2023-05-08T08:10:13;95693.20;;;15.64;89.83
59329;BME280;45100;46.926;7.452;2023-05-08T08:12:45;95694.64;;;15.66;90.32
59329;BME280;45100;46.926;7.452;2023-05-08T08:15:14;95690.40;;;15.67;90.39
59329;BME280;45100;46.926;7.452;2023-05-08T08:17:45;95697.39;;;15.69;90.19
59329;BME280;45100;46.926;7.452;2023-05-08T08:20:16;95697.39;;;15.71;90.29
59329;BME280;45100;46.926;7.452;2023-05-08T08:22:46;95695.16;;;15.70;89.82
59329;BME280;45100;46.926;7.452;2023-05-08T08:27:49;95695.07;;;15.71;89.40
59329;BME280;45100;46.926;7.452;2023-05-08T08:30:21;95697.19;;;15.75;89.76
59329;BME280;45100;46.926;7.452;2023-05-08T08:32:51;95693.95;;;15.76;89.12
59329;BME280;45100;46.926;7.452;2023-05-08T08:35:29;95691.49;;;15.80;88.42
59329;BME280;45100;46.926;7.452;2023-05-08T08:37:52;95688.32;;;15.85;88.85
59329;BME280;45100;46.926;7.452;2023-05-08T08:40:22;95689.47;;;15.92;89.67
59329;BME280;45100;46.926;7.452;2023-05-08T08:42:52;95685.05;;;15.98;88.91
59329;BME280;45100;46.926;7.452;2023-05-08T08:45:22;95683.77;;;16.08;89.43
59329;BME280;45100;46.926;7.452;2023-05-08T08:47:53;95682.33;;;16.20;89.75
59329;BME280;45100;46.926;7.452;2023-05-08T08:50:24;95686.75;;;16.32;87.65
59329;BME280;45100;46.926;7.452;2023-05-08T08:53:09;95682.59;;;16.37;86.31
59329;BME280;45100;46.926;7.452;2023-05-08T08:55:25;95683.47;;;16.39;86.02
59329;BME280;45100;46.926;7.452;2023-05-08T08:58:25;95677.65;;;16.43;86.25
59329;BME280;45100;46.926;7.452;2023-05-08T09:00:27;95676.84;;;16.49;86.68
59329;BME280;45100;46.926;7.452;2023-05-08T09:02:55;95678.47;;;16.55;86.08
59329;BME280;45100;46.926;7.452;2023-05-08T09:05:26;95685.24;;;16.63;85.66
59329;BME280;45100;46.926;7.452;2023-05-08T09:07:57;95681.51;;;16.71;83.49
59329;BME280;45100;46.926;7.452;2023-05-08T09:10:26;95679.16;;;16.82;85.38
59329;BME280;45100;46.926;7.452;2023-05-08T09:12:57;95677.16;;;16.90;84.57
59329;BME280;45100;46.926;7.452;2023-05-08T09:15:28;95678.80;;;16.86;82.48
59329;BME280;45100;46.926;7.452;2023-05-08T09:18:00;95680.41;;;16.78;83.07
59329;BME280;45100;46.926;7.452;2023-05-08T09:20:29;95682.80;;;16.74;83.39
59329;BME280;45100;46.926;7.452;2023-05-08T09:25:42;95679.91;;;16.81;84.74
59329;BME280;45100;46.926;7.452;2023-05-08T09:28:18;95678.17;;;16.93;86.02
59329;BME280;45100;46.926;7.452;2023-05-08T09:30:47;95678.05;;;17.13;83.69
59329;BME280;45100;46.926;7.452;2023-05-08T09:33:04;95683.39;;;17.28;80.10
59329;BME280;45100;46.926;7.452;2023-05-08T09:35:35;95685.27;;;17.36;78.47
59329;BME280;45100;46.926;7.452;2023-05-08T09:38:06;95680.99;;;17.57;78.94
59329;BME280;45100;46.926;7.452;2023-05-08T09:40:36;95682.98;;;17.85;77.48
59329;BME280;45100;46.926;7.452;2023-05-08T09:43:13;95683.28;;;18.15;74.96
59329;BME280;45100;46.926;7.452;2023-05-08T09:45:39;95683.37;;;18.41;72.35
59329;BME280;45100;46.926;7.452;2023-05-08T09:48:09;95676.91;;;18.53;72.46
59329;BME280;45100;46.926;7.452;2023-05-08T09:50:38;95673.25;;;18.53;71.34
59329;BME280;45100;46.926;7.452;2023-05-08T09:53:09;95673.36;;;18.46;70.50
59329;BME280;45100;46.926;7.452;2023-05-08T09:55:46;95674.81;;;18.44;73.69
59329;BME280;45100;46.926;7.452;2023-05-08T09:58:10;95674.39;;;18.47;72.84
59329;BME280;45100;46.926;7.452;2023-05-08T10:00:41;95677.96;;;18.54;74.98
59329;BME280;45100;46.926;7.452;2023-05-08T10:03:11;95675.50;;;18.61;72.65
59329;BME280;45100;46.926;7.452;2023-05-08T10:05:42;95683.25;;;18.54;72.93
59329;BME280;45100;46.926;7.452;2023-05-08T10:08:20;95682.28;;;18.41;71.18
59329;BME280;45100;46.926;7.452;2023-05-08T10:10:43;95684.22;;;18.30;72.07
59329;BME280;45100;46.926;7.452;2023-05-08T10:13:13;95684.03;;;18.26;75.31
59329;BME280;45100;46.926;7.452;2023-05-08T10:15:44;95683.86;;;18.21;72.76
59329;BME280;45100;46.926;7.452;2023-05-08T10:18:16;95686.52;;;18.08;72.91
59329;BME280;45100;46.926;7.452;2023-05-08T10:20:47;95686.52;;;17.96;73.48
59329;BME280;45100;46.926;7.452;2023-05-08T10:23:19;95684.96;;;17.92;75.00
59329;BME280;45100;46.926;7.452;2023-05-08T10:25:51;95684.44;;;17.95;75.93
59329;BME280;45100;46.926;7.452;2023-05-08T10:30:47;95689.08;;;17.98;71.31
59329;BME280;45100;46.926;7.452;2023-05-08T10:33:19;95689.07;;;17.93;71.12
59329;BME280;45100;46.926;7.452;2023-05-08T10:38:21;95686.72;;;18.07;72.89
59329;BME280;45100;46.926;7.452;2023-05-08T10:41:00;95684.82;;;18.20;71.68
59329;BME280;45100;46.926;7.452;2023-05-08T10:43:21;95684.33;;;18.33;71.42
59329;BME280;45100;46.926;7.452;2023-05-08T10:45:52;95679.72;;;18.46;73.02
59329;BME280;45100;46.926;7.452;2023-05-08T10:51:01;95676.48;;;18.53;71.39
59329;BME280;45100;46.926;7.452;2023-05-08T10:53:37;95669.59;;;18.52;71.26
59329;BME280;45100;46.926;7.452;2023-05-08T10:55:54;95671.45;;;18.52;71.80
59329;BME280;45100;46.926;7.452;2023-05-08T10:58:31;95665.80;;;18.54;72.40
59329;BME280;45100;46.926;7.452;2023-05-08T11:01:11;95665.37;;;18.60;71.29
59329;BME280;45100;46.926;7.452;2023-05-08T11:03:29;95666.30;;;18.60;72.13
59329;BME280;45100;46.926;7.452;2023-05-08T11:05:58;95663.45;;;18.59;72.71
59329;BME280;45100;46.926;7.452;2023-05-08T11:11:22;95665.42;;;18.54;71.88
59329;BME280;45100;46.926;7.452;2023-05-08T11:13:33;95675.65;;;18.48;72.71
59329;BME280;45100;46.926;7.452;2023-05-08T11:16:03;95675.09;;;18.45;73.15
59329;BME280;45100;46.926;7.452;2023-05-08T11:18:32;95668.48;;;18.41;73.04
59329;BME280;45100;46.926;7.452;2023-05-08T11:21:13;95667.06;;;18.39;73.84
59329;BME280;45100;46.926;7.452;2023-05-08T11:23:35;95663.85;;;18.44;73.61
59329;BME280;45100;46.926;7.452;2023-05-08T11:26:13;95665.06;;;18.50;74.33
59329;BME280;45100;46.926;7.452;2023-05-08T11:28:56;95661.98;;;18.54;74.47
59329;BME280;45100;46.926;7.452;2023-05-08T11:31:21;95665.69;;;18.59;75.30
59329;BME280;45100;46.926;7.452;2023-05-08T11:33:47;95662.25;;;18.61;74.23
59329;BME280;45100;46.926;7.452;2023-05-08T11:36:19;95660.46;;;18.58;74.47
59329;BME280;45100;46.926;7.452;2023-05-08T11:39:07;95658.92;;;18.54;74.23
59329;BME280;45100;46.926;7.452;2023-05-08T11:41:22;95669.50;;;18.51;73.49
59329;BME280;45100;46.926;7.452;2023-05-08T11:46:20;95670.25;;;18.31;73.51
59329;BME280;45100;46.926;7.452;2023-05-08T11:48:58;95666.08;;;18.23;72.81
59329;BME280;45100;46.926;7.452;2023-05-08T11:51:20;95663.66;;;18.19;73.49
59329;BME280;45100;46.926;7.452;2023-05-08T11:53:52;95663.92;;;18.18;72.98
59329;BME280;45100;46.926;7.452;2023-05-08T11:56:21;95658.86;;;18.17;74.90
59329;BME280;45100;46.926;7.452;2023-05-08T11:59:02;95664.06;;;18.21;73.02
59329;BME280;45100;46.926;7.452;2023-05-08T12:01:23;95658.66;;;18.23;71.48
59329;BME280;45100;46.926;7.452;2023-05-08T12:04:00;95656.48;;;18.23;71.65
59329;BME280;45100;46.926;7.452;2023-05-08T12:06:24;95653.80;;;18.22;71.75
59329;BME280;45100;46.926;7.452;2023-05-08T12:08:54;95655.48;;;18.17;72.91
59329;BME280;45100;46.926;7.452;2023-05-08T12:13:59;95657.26;;;18.24;69.36
59329;BME280;45100;46.926;7.452;2023-05-08T12:16:33;95656.61;;;18.26;70.69
59329;BME280;45100;46.926;7.452;2023-05-08T12:19:00;95659.63;;;18.35;70.24
59329;BME280;45100;46.926;7.452;2023-05-08T12:21:32;95653.39;;;18.45;70.45
59329;BME280;45100;46.926;7.452;2023-05-08T12:24:07;95654.27;;;18.49;69.50
59329;BME280;45100;46.926;7.452;2023-05-08T12:26:35;95652.28;;;18.43;70.74
59329;BME280;45100;46.926;7.452;2023-05-08T12:29:06;95652.41;;;18.42;70.28
59329;BME280;45100;46.926;7.452;2023-05-08T12:31:35;95647.88;;;18.46;70.11
59329;BME280;45100;46.926;7.452;2023-05-08T12:34:03;95642.54;;;18.47;70.32
59329;BME280;45100;46.926;7.452;2023-05-08T12:36:36;95641.84;;;18.58;70.59
59329;BME280;45100;46.926;7.452;2023-05-08T12:39:11;95643.00;;;18.84;70.26
59329;BME280;45100;46.926;7.452;2023-05-08T12:41:46;95644.48;;;19.16;68.84
59329;BME280;45100;46.926;7.452;2023-05-08T12:44:16;95648.17;;;19.34;66.82
59329;BME280;45100;46.926;7.452;2023-05-08T12:46:35;95645.98;;;19.40;68.04
59329;BME280;45100;46.926;7.452;2023-05-08T12:49:12;95643.70;;;19.39;67.83
59329;BME280;45100;46.926;7.452;2023-05-08T12:54:09;95646.38;;;19.35;66.12
59329;BME280;45100;46.926;7.452;2023-05-08T12:56:42;95646.06;;;19.29;67.44
59329;BME280;45100;46.926;7.452;2023-05-08T12:59:10;95646.34;;;19.30;68.28
59329;BME280;45100;46.926;7.452;2023-05-08T13:04:15;95649.35;;;19.18;67.68
59329;BME280;45100;46.926;7.452;2023-05-08T13:06:53;95646.72;;;19.01;68.19
59329;BME280;45100;46.926;7.452;2023-05-08T13:09:18;95646.51;;;18.82;69.04
59329;BME280;45100;46.926;7.452;2023-05-08T13:11:46;95643.72;;;18.66;70.54
59329;BME280;45100;46.926;7.452;2023-05-08T13:14:17;95645.16;;;18.52;71.23
59329;BME280;45100;46.926;7.452;2023-05-08T13:16:48;95645.42;;;18.39;71.78
59329;BME280;45100;46.926;7.452;2023-05-08T13:19:19;95648.20;;;18.25;72.87
59329;BME280;45100;46.926;7.452;2023-05-08T13:21:50;95646.09;;;18.16;72.81
59329;BME280;45100;46.926;7.452;2023-05-08T13:24:20;95641.05;;;18.10;72.35
59329;BME280;45100;46.926;7.452;2023-05-08T13:26:51;95641.77;;;18.06;72.75
59329;BME280;45100;46.926;7.452;2023-05-08T13:29:21;95636.98;;;18.06;72.26
59329;BME280;45100;46.926;7.452;2023-05-08T13:31:52;95630.23;;;18.12;74.10
59329;BME280;45100;46.926;7.452;2023-05-08T13:34:25;95632.22;;;18.21;73.24
59329;BME280;45100;46.926;7.452;2023-05-08T13:36:53;95628.38;;;18.27;71.90
59329;BME280;45100;46.926;7.452;2023-05-08T13:39:24;95623.95;;;18.34;70.95
59329;BME280;45100;46.926;7.452;2023-05-08T13:41:54;95623.05;;;18.41;70.67
59329;BME280;45100;46.926;7.452;2023-05-08T13:44:25;95617.91;;;18.51;71.72
59329;BME280;45100;46.926;7.452;2023-05-08T13:46:56;95614.69;;;18.62;70.47
59329;BME280;45100;46.926;7.452;2023-05-08T13:51:59;95613.37;;;18.83;69.97
59329;BME280;45100;46.926;7.452;2023-05-08T13:54:30;95615.06;;;18.92;70.03
59329;BME280;45100;46.926;7.452;2023-05-08T13:57:02;95610.22;;;19.00;67.66
59329;BME280;45100;46.926;7.452;2023-05-08T13:59:32;95608.61;;;19.01;64.63
59329;BME280;45100;46.926;7.452;2023-05-08T14:02:02;95605.19;;;18.99;65.81
59329;BME280;45100;46.926;7.452;2023-05-08T14:04:33;95603.43;;;19.01;66.65
59329;BME280;45100;46.926;7.452;2023-05-08T14:07:04;95602.52;;;19.06;68.72
59329;BME280;45100;46.926;7.452;2023-05-08T14:09:35;95602.77;;;19.10;67.99